createdAt,value
2022-09-24T00:01:27.301Z,2.03
2022-09-24T00:04:02.551Z,2.27
2022-09-24T00:06:30.862Z,2.90
2022-09-24T00:08:58.446Z,2.43
2022-09-24T00:11:27.014Z,2.53
2022-09-24T00:13:54.826Z,1.67
2022-09-24T00:16:23.355Z,3.70
2022-09-24T00:18:50.769Z,3.13
2022-09-24T00:21:19.703Z,2.83
2022-09-24T00:23:49.901Z,2.00
2022-09-24T00:26:36.224Z,2.00
2022-09-24T00:29:03.572Z,1.77
2022-09-24T00:31:31.010Z,1.90
2022-09-24T00:33:59.440Z,1.87
2022-09-24T00:36:27.411Z,5.17
2022-09-24T00:38:55.879Z,2.87
2022-09-24T00:41:25.160Z,2.23
2022-09-24T00:43:52.633Z,2.27
2022-09-24T00:46:23.020Z,3.83
2022-09-24T00:48:51.732Z,2.70
2022-09-24T00:51:20.954Z,1.53
2022-09-24T00:53:50.689Z,2.37
2022-09-24T00:56:18.026Z,2.17
2022-09-24T00:58:47.696Z,2.20
2022-09-24T01:01:15.072Z,3.87
2022-09-24T01:03:42.928Z,2.43
2022-09-24T01:06:12.630Z,1.87
2022-09-24T01:08:40.688Z,1.73
2022-09-24T01:11:23.220Z,3.10
2022-09-24T01:13:51.780Z,1.63
2022-09-24T01:16:31.573Z,1.80
2022-09-24T01:19:05.851Z,2.00
2022-09-24T01:21:43.040Z,2.00
2022-09-24T01:24:25.227Z,1.87
2022-09-24T01:26:52.551Z,1.90
2022-09-24T01:29:32.163Z,1.67
2022-09-24T01:32:06.029Z,1.43
2022-09-24T01:34:41.578Z,2.50
2022-09-24T01:37:09.667Z,2.13
2022-09-24T01:39:37.891Z,2.80
2022-09-24T01:42:06.243Z,2.00
2022-09-24T01:44:35.054Z,2.63
2022-09-24T01:47:02.507Z,1.87
2022-09-24T01:49:30.416Z,2.90
2022-09-24T01:51:59.177Z,2.70
2022-09-24T01:54:29.134Z,1.37
2022-09-24T01:57:03.828Z,1.60
2022-09-24T01:59:37.483Z,1.80
2022-09-24T02:02:10.876Z,5.30
2022-09-24T02:04:42.758Z,2.37
2022-09-24T02:07:17.112Z,2.00
2022-09-24T02:09:44.644Z,2.43
2022-09-24T02:12:25.241Z,1.67
2022-09-24T02:14:55.138Z,1.73
2022-09-24T02:17:24.184Z,1.80
2022-09-24T02:19:51.550Z,2.00
2022-09-24T02:22:19.169Z,3.13
2022-09-24T02:24:49.555Z,1.73
2022-09-24T02:27:17.449Z,1.80
2022-09-24T02:29:44.886Z,3.30
2022-09-24T02:32:14.103Z,3.23
2022-09-24T02:34:47.264Z,6.03
2022-09-24T02:37:15.239Z,5.73
2022-09-24T02:39:42.970Z,2.07
2022-09-24T02:42:11.486Z,4.13
2022-09-24T02:44:38.815Z,2.10
2022-09-24T02:47:07.061Z,1.90
2022-09-24T02:49:34.444Z,3.53
2022-09-24T02:52:01.878Z,1.90
2022-09-24T02:54:29.219Z,2.37
2022-09-24T02:56:56.558Z,1.57
2022-09-24T02:59:24.155Z,2.20
2022-09-24T03:01:51.587Z,1.80
2022-09-24T03:04:18.963Z,1.60
2022-09-24T03:06:46.270Z,1.50
2022-09-24T03:09:13.714Z,3.27
2022-09-24T03:11:41.122Z,1.90
2022-09-24T03:14:08.583Z,1.40
2022-09-24T03:16:36.165Z,3.00
2022-09-24T03:19:03.651Z,1.50
2022-09-24T03:21:31.035Z,2.23
2022-09-24T03:23:58.430Z,1.73
2022-09-24T03:26:25.711Z,1.70
2022-09-24T03:28:53.324Z,4.27
2022-09-24T03:31:23.390Z,1.50
2022-09-24T03:33:51.291Z,1.97
2022-09-24T03:36:20.910Z,1.97
2022-09-24T03:38:49.098Z,2.03
2022-09-24T03:41:17.095Z,1.93
2022-09-24T03:43:44.644Z,1.43
2022-09-24T03:46:12.733Z,1.60
2022-09-24T03:48:40.835Z,3.10
2022-09-24T03:51:09.650Z,2.33
2022-09-24T03:53:37.202Z,2.20
2022-09-24T03:56:06.288Z,2.10
2022-09-24T03:58:37.957Z,2.23
2022-09-24T04:01:06.514Z,1.57
2022-09-24T04:03:33.891Z,2.10
2022-09-24T04:06:01.725Z,3.43
2022-09-24T04:08:29.052Z,3.07
2022-09-24T04:10:56.514Z,1.60
2022-09-24T04:13:23.929Z,2.43
2022-09-24T04:15:51.721Z,2.33
2022-09-24T04:18:19.303Z,2.63
2022-09-24T04:20:47.136Z,2.87
2022-09-24T04:23:15.362Z,2.17
2022-09-24T04:25:42.772Z,1.83
2022-09-24T04:28:10.693Z,1.47
2022-09-24T04:30:38.387Z,1.53
2022-09-24T04:33:06.065Z,1.97
2022-09-24T04:35:36.040Z,2.23
2022-09-24T04:38:04.459Z,1.50
2022-09-24T04:40:32.159Z,1.90
2022-09-24T04:42:59.653Z,1.50
2022-09-24T04:45:27.028Z,3.17
2022-09-24T04:47:57.827Z,1.43
2022-09-24T04:50:26.430Z,1.43
2022-09-24T04:52:54.473Z,1.60
2022-09-24T04:55:22.452Z,2.97
2022-09-24T04:57:51.163Z,2.60
2022-09-24T05:00:20.236Z,4.60
2022-09-24T05:02:47.702Z,6.27
2022-09-24T05:05:15.370Z,2.90
2022-09-24T05:07:44.653Z,3.13
2022-09-24T05:10:11.950Z,1.80
2022-09-24T05:12:40.834Z,1.73
2022-09-24T05:15:08.398Z,2.20
2022-09-24T05:17:38.854Z,1.70
2022-09-24T05:20:06.590Z,2.00
2022-09-24T05:22:33.988Z,1.47
2022-09-24T05:25:01.277Z,1.90
2022-09-24T05:27:28.657Z,1.57
2022-09-24T05:29:56.574Z,2.33
2022-09-24T05:32:24.012Z,2.87
2022-09-24T05:34:52.437Z,1.93
2022-09-24T05:37:20.139Z,1.80
2022-09-24T05:39:47.450Z,3.87
2022-09-24T05:42:15.046Z,2.07
2022-09-24T05:44:49.796Z,2.30
2022-09-24T05:47:19.444Z,1.70
2022-09-24T05:49:46.812Z,2.10
2022-09-24T05:52:14.197Z,5.33
2022-09-24T05:54:41.588Z,3.23
2022-09-24T05:57:08.963Z,2.43
2022-09-24T05:59:36.267Z,5.03
2022-09-24T06:02:03.705Z,2.40
2022-09-24T06:04:31.227Z,2.37
2022-09-24T06:06:58.504Z,2.80
2022-09-24T06:09:25.843Z,3.10
2022-09-24T06:11:54.146Z,2.90
2022-09-24T06:14:21.555Z,2.97
2022-09-24T06:16:49.000Z,2.00
2022-09-24T06:19:16.318Z,2.77
2022-09-24T06:21:43.566Z,2.57
2022-09-24T06:24:11.377Z,1.70
2022-09-24T06:26:38.716Z,2.43
2022-09-24T06:29:06.199Z,1.63
2022-09-24T06:31:34.844Z,3.33
2022-09-24T06:34:02.899Z,3.27
2022-09-24T06:36:30.236Z,3.17
2022-09-24T06:38:59.131Z,3.00
2022-09-24T06:41:26.503Z,2.00
2022-09-24T06:43:56.603Z,1.97
2022-09-24T06:46:25.873Z,1.80
2022-09-24T06:48:56.760Z,2.10
2022-09-24T06:51:24.117Z,2.20
2022-09-24T06:53:54.253Z,1.60
2022-09-24T06:56:21.618Z,2.07
2022-09-24T06:58:49.029Z,2.40
2022-09-24T07:01:16.392Z,1.50
2022-09-24T07:03:43.861Z,1.60
2022-09-24T07:06:11.227Z,2.80
2022-09-24T07:08:38.520Z,2.37
2022-09-24T07:11:05.946Z,3.37
2022-09-24T07:13:33.328Z,4.00
2022-09-24T07:16:01.733Z,4.37
2022-09-24T07:18:29.265Z,2.63
2022-09-24T07:20:57.101Z,3.77
2022-09-24T07:23:24.618Z,3.87
2022-09-24T07:25:56.053Z,7.97
2022-09-24T07:28:23.377Z,4.10
2022-09-24T07:30:56.850Z,3.13
2022-09-24T07:33:24.170Z,4.73
2022-09-24T07:35:51.593Z,5.50
2022-09-24T07:38:19.075Z,4.67
2022-09-24T07:40:46.419Z,4.23
2022-09-24T07:43:14.751Z,3.90
2022-09-24T07:45:42.752Z,3.60
2022-09-24T07:48:10.827Z,4.93
2022-09-24T07:50:42.613Z,4.43
2022-09-24T07:53:13.138Z,5.93
2022-09-24T07:55:41.269Z,2.60
2022-09-24T07:58:15.245Z,5.27
2022-09-24T08:00:42.943Z,5.00
2022-09-24T08:03:10.896Z,5.10
2022-09-24T08:05:43.940Z,2.60
2022-09-24T08:08:11.247Z,4.70
2022-09-24T08:10:38.608Z,5.07
2022-09-24T08:13:05.943Z,7.07
2022-09-24T08:15:33.313Z,4.80
2022-09-24T08:18:04.297Z,5.43
2022-09-24T08:20:32.564Z,4.83
2022-09-24T08:23:03.115Z,6.10
2022-09-24T08:25:31.286Z,6.27
2022-09-24T08:28:02.393Z,7.30
2022-09-24T08:30:31.043Z,9.83
2022-09-24T08:32:58.890Z,6.57
2022-09-24T08:35:26.326Z,7.03
2022-09-24T08:37:56.694Z,7.50
2022-09-24T08:40:25.828Z,7.00
2022-09-24T08:42:56.145Z,6.37
2022-09-24T08:45:42.062Z,5.23
2022-09-24T08:48:09.387Z,6.53
2022-09-24T08:50:39.719Z,8.63
2022-09-24T08:53:21.979Z,6.03
2022-09-24T08:55:50.759Z,6.53
2022-09-24T08:58:18.176Z,5.37
2022-09-24T09:01:02.987Z,4.87
2022-09-24T09:03:33.315Z,4.83
2022-09-24T09:06:03.738Z,5.17
2022-09-24T09:09:05.863Z,9.37
2022-09-24T09:11:34.159Z,4.43
2022-09-24T09:14:10.215Z,5.00
2022-09-24T09:16:58.363Z,5.67
2022-09-24T09:19:28.530Z,5.20
2022-09-24T09:22:00.001Z,6.03
2022-09-24T09:24:40.729Z,5.80
2022-09-24T09:27:12.444Z,4.23
2022-09-24T09:29:39.841Z,4.20
2022-09-24T09:32:16.284Z,5.87
2022-09-24T09:35:02.227Z,7.47
2022-09-24T09:37:41.629Z,6.00
2022-09-24T09:40:20.978Z,7.23
2022-09-24T09:42:48.630Z,4.23
2022-09-24T09:45:35.307Z,5.53
2022-09-24T09:48:03.331Z,5.63
2022-09-24T09:50:31.494Z,6.50
2022-09-24T09:52:58.880Z,7.40
2022-09-24T09:55:31.427Z,5.57
2022-09-24T09:58:17.252Z,9.23
2022-09-24T10:00:48.602Z,6.77
2022-09-24T10:03:25.148Z,7.30
2022-09-24T10:06:02.525Z,8.63
2022-09-24T10:08:30.149Z,9.30
2022-09-24T10:10:58.426Z,6.43
2022-09-24T10:13:26.317Z,8.30
2022-09-24T10:15:55.145Z,9.57
2022-09-24T10:18:29.659Z,9.97
2022-09-24T10:20:57.961Z,8.03
2022-09-24T10:23:31.904Z,5.33
2022-09-24T10:26:00.690Z,5.30
2022-09-24T10:28:47.373Z,4.83
2022-09-24T10:31:17.554Z,5.23
2022-09-24T10:33:46.520Z,4.87
2022-09-24T10:36:24.131Z,5.23
2022-09-24T10:39:03.058Z,5.13
2022-09-24T10:41:31.365Z,4.80
2022-09-24T10:44:02.833Z,4.50
2022-09-24T10:46:36.461Z,4.47
2022-09-24T10:49:12.778Z,4.30
2022-09-24T10:51:40.109Z,4.17
2022-09-24T10:54:16.476Z,4.40
2022-09-24T10:56:51.994Z,4.97
2022-09-24T10:59:34.329Z,4.63
2022-09-24T11:02:04.513Z,3.47
2022-09-24T11:04:38.599Z,5.97
2022-09-24T11:07:15.371Z,4.60
2022-09-24T11:09:49.033Z,4.07
2022-09-24T11:12:35.419Z,3.57
2022-09-24T11:15:22.049Z,4.07
2022-09-24T11:18:11.026Z,4.80
2022-09-24T11:20:39.511Z,4.13
2022-09-24T11:23:25.601Z,3.00
2022-09-24T11:25:58.977Z,6.07
2022-09-24T11:28:44.444Z,3.20
2022-09-24T11:31:11.784Z,6.20
2022-09-24T11:33:42.220Z,4.20
2022-09-24T11:36:22.110Z,3.83
2022-09-24T11:38:49.469Z,4.20
2022-09-24T11:41:17.055Z,3.93
2022-09-24T11:43:44.369Z,3.40
2022-09-24T11:46:31.691Z,3.50
2022-09-24T11:49:17.838Z,4.53
2022-09-24T11:52:05.420Z,3.93
2022-09-24T11:54:41.887Z,3.17
2022-09-24T11:57:16.220Z,3.73
2022-09-24T11:59:54.619Z,4.07
2022-09-24T12:02:31.223Z,3.27
2022-09-24T12:05:01.724Z,3.60
2022-09-24T12:07:34.577Z,5.80
2022-09-24T12:10:05.124Z,3.10
2022-09-24T12:12:38.610Z,3.83
2022-09-24T12:15:20.444Z,2.90
2022-09-24T12:17:53.606Z,3.30
2022-09-24T12:20:23.896Z,3.10
2022-09-24T12:23:00.260Z,3.13
2022-09-24T12:25:29.964Z,2.20
2022-09-24T12:27:58.899Z,4.07
2022-09-24T12:30:47.408Z,1.67
2022-09-24T12:33:14.864Z,2.77
2022-09-24T12:36:02.052Z,2.50
2022-09-24T12:38:46.868Z,3.03
2022-09-24T12:41:20.148Z,2.33
2022-09-24T12:44:06.643Z,4.10
2022-09-24T12:46:39.560Z,2.80
2022-09-24T12:49:22.166Z,2.07
2022-09-24T12:51:49.522Z,3.00
2022-09-24T12:54:30.740Z,3.60
2022-09-24T12:57:18.221Z,2.17
2022-09-24T12:59:59.924Z,2.23
2022-09-24T13:02:46.569Z,2.57
2022-09-24T13:05:23.010Z,2.00
2022-09-24T13:07:58.259Z,2.57
2022-09-24T13:10:27.602Z,2.40
2022-09-24T13:12:55.030Z,2.77
2022-09-24T13:15:28.510Z,2.53
2022-09-24T13:18:06.972Z,2.10
2022-09-24T13:20:36.166Z,2.20
2022-09-24T13:23:19.763Z,2.10
2022-09-24T13:26:06.804Z,2.10
2022-09-24T13:28:51.345Z,4.23
2022-09-24T13:31:23.541Z,2.00
2022-09-24T13:33:54.998Z,2.10
2022-09-24T13:36:37.795Z,1.80
2022-09-24T13:39:17.414Z,2.00
2022-09-24T13:42:07.610Z,3.10
2022-09-24T13:44:40.714Z,1.87
2022-09-24T13:47:17.468Z,1.60
2022-09-24T13:49:49.185Z,1.70
2022-09-24T13:52:19.553Z,1.83
2022-09-24T13:54:55.473Z,1.75
2022-09-24T13:57:24.722Z,1.50
2022-09-24T14:00:04.503Z,1.50
2022-09-24T14:02:38.515Z,1.52
2022-09-24T14:05:08.258Z,2.53
2022-09-24T14:07:35.609Z,2.80
2022-09-24T14:10:04.886Z,1.30
2022-09-24T14:12:32.291Z,1.10
2022-09-24T14:14:59.951Z,1.00
2022-09-24T14:17:27.346Z,1.05
2022-09-24T14:19:56.207Z,0.75
2022-09-24T14:22:33.746Z,0.85
2022-09-24T14:25:07.316Z,1.13
2022-09-24T14:27:36.860Z,1.10
2022-09-24T14:30:06.525Z,0.85
2022-09-24T14:32:42.632Z,0.70
2022-09-24T14:35:10.562Z,1.02
2022-09-24T14:37:42.275Z,0.60
2022-09-24T14:40:17.524Z,1.05
2022-09-24T14:42:49.279Z,0.80
2022-09-24T14:45:39.790Z,0.52
2022-09-24T14:48:27.363Z,0.52
2022-09-24T14:50:54.733Z,0.60
2022-09-24T14:53:22.326Z,0.40
2022-09-24T14:55:50.008Z,0.70
2022-09-24T14:58:24.252Z,0.70
2022-09-24T15:00:55.235Z,0.60
2022-09-24T15:03:28.748Z,0.57
2022-09-24T15:06:06.509Z,0.82
2022-09-24T15:08:33.939Z,0.60
2022-09-24T15:11:05.600Z,0.60
2022-09-24T15:13:36.816Z,0.55
2022-09-24T15:16:15.845Z,0.73
2022-09-24T15:18:43.239Z,0.75
2022-09-24T15:21:12.894Z,0.73
2022-09-24T15:23:40.255Z,1.00
2022-09-24T15:26:07.899Z,0.50
2022-09-24T15:28:35.227Z,0.50
2022-09-24T15:31:02.657Z,0.70
2022-09-24T15:33:30.052Z,0.50
2022-09-24T15:35:57.426Z,0.98
2022-09-24T15:38:24.782Z,1.20
2022-09-24T15:40:53.809Z,0.40
2022-09-24T15:43:22.872Z,0.40
2022-09-24T15:45:50.434Z,0.50
2022-09-24T15:48:17.774Z,0.68
2022-09-24T15:50:46.470Z,0.60
2022-09-24T15:53:24.137Z,0.40
2022-09-24T15:55:53.917Z,0.40
2022-09-24T15:58:21.657Z,0.60
2022-09-24T16:00:49.206Z,0.50
2022-09-24T16:03:25.527Z,0.43
2022-09-24T16:05:53.126Z,0.40
2022-09-24T16:08:20.750Z,0.73
2022-09-24T16:10:48.246Z,0.40
2022-09-24T16:13:16.812Z,0.40
2022-09-24T16:15:44.471Z,0.60
2022-09-24T16:18:15.558Z,1.15
2022-09-24T16:20:44.853Z,1.10
2022-09-24T16:23:15.881Z,1.63
2022-09-24T16:25:54.703Z,0.63
2022-09-24T16:28:22.254Z,1.13
2022-09-24T16:30:49.658Z,0.53
2022-09-24T16:33:17.124Z,0.50
2022-09-24T16:35:44.422Z,0.50
2022-09-24T16:38:11.930Z,0.40
2022-09-24T16:40:39.349Z,0.47
2022-09-24T16:43:06.788Z,1.80
2022-09-24T16:45:34.129Z,0.53
2022-09-24T16:48:01.563Z,1.07
2022-09-24T16:50:28.947Z,1.70
2022-09-24T16:52:56.262Z,2.27
2022-09-24T16:55:26.993Z,3.47
2022-09-24T16:57:54.463Z,2.40
2022-09-24T17:00:21.812Z,3.20
2022-09-24T17:02:49.258Z,2.13
2022-09-24T17:05:16.713Z,1.73
2022-09-24T17:07:44.058Z,2.00
2022-09-24T17:10:16.117Z,1.83
2022-09-24T17:12:50.227Z,2.07
2022-09-24T17:15:22.012Z,1.93
2022-09-24T17:17:50.588Z,1.50
2022-09-24T17:20:18.664Z,1.83
2022-09-24T17:22:48.114Z,1.93
2022-09-24T17:25:15.600Z,2.40
2022-09-24T17:27:42.966Z,1.83
2022-09-24T17:30:11.005Z,1.83
2022-09-24T17:32:38.382Z,2.13
2022-09-24T17:35:06.357Z,1.23
2022-09-24T17:37:33.832Z,1.50
2022-09-24T17:40:01.558Z,1.10
2022-09-24T17:42:28.886Z,0.90
2022-09-24T17:44:56.255Z,0.90
2022-09-24T17:47:23.915Z,1.10
2022-09-24T17:49:51.292Z,0.90
2022-09-24T17:52:20.744Z,1.20
2022-09-24T17:54:48.140Z,1.40
2022-09-24T17:57:15.466Z,0.90
2022-09-24T17:59:43.324Z,1.30
2022-09-24T18:02:11.378Z,1.20
2022-09-24T18:04:38.747Z,1.63
2022-09-24T18:07:06.066Z,1.10
2022-09-24T18:09:33.516Z,2.03
2022-09-24T18:12:00.877Z,1.03
2022-09-24T18:14:28.299Z,1.83
2022-09-24T18:16:55.740Z,1.30
2022-09-24T18:19:23.167Z,1.63
2022-09-24T18:21:50.505Z,1.47
2022-09-24T18:24:18.227Z,1.10
2022-09-24T18:26:49.488Z,0.87
2022-09-24T18:29:19.238Z,1.57
2022-09-24T18:31:46.797Z,0.93
2022-09-24T18:34:15.116Z,3.73
2022-09-24T18:36:43.271Z,1.83
2022-09-24T18:39:13.502Z,1.40
2022-09-24T18:41:41.781Z,1.53
2022-09-24T18:44:10.540Z,2.67
2022-09-24T18:46:41.305Z,2.03
2022-09-24T18:49:08.922Z,2.20
2022-09-24T18:51:37.696Z,1.53
2022-09-24T18:54:08.808Z,1.83
2022-09-24T18:56:36.561Z,1.60
2022-09-24T18:59:14.639Z,1.70
2022-09-24T19:01:42.675Z,2.57
2022-09-24T19:04:10.940Z,2.07
2022-09-24T19:06:42.612Z,4.03
2022-09-24T19:09:10.497Z,2.03
2022-09-24T19:11:38.244Z,2.30
2022-09-24T19:14:05.599Z,1.57
2022-09-24T19:16:33.155Z,2.20
2022-09-24T19:19:01.489Z,3.10
2022-09-24T19:21:29.181Z,2.37
2022-09-24T19:23:57.856Z,2.57
2022-09-24T19:26:29.582Z,1.77
2022-09-24T19:28:57.368Z,21.63
2022-09-24T19:31:45.711Z,9.40
2022-09-24T19:34:14.522Z,3.63
2022-09-24T19:36:44.241Z,2.13
2022-09-24T19:39:18.621Z,2.10
2022-09-24T19:41:46.035Z,1.90
2022-09-24T19:44:14.019Z,1.43
2022-09-24T19:46:44.410Z,2.07
2022-09-24T19:49:11.812Z,1.67
2022-09-24T19:51:40.048Z,3.47
2022-09-24T19:54:08.267Z,2.23
2022-09-24T19:56:36.022Z,3.63
2022-09-24T19:59:03.467Z,1.87
2022-09-24T20:01:32.420Z,1.80
2022-09-24T20:04:00.395Z,1.90
2022-09-24T20:06:31.589Z,1.53
2022-09-24T20:08:59.438Z,1.90
2022-09-24T20:11:26.936Z,2.23
2022-09-24T20:13:55.934Z,1.73
2022-09-24T20:16:27.509Z,2.00
2022-09-24T20:18:57.505Z,2.00
2022-09-24T20:21:29.325Z,2.50
2022-09-24T20:23:57.851Z,2.30
2022-09-24T20:26:44.131Z,2.07
2022-09-24T20:29:12.326Z,1.57
2022-09-24T20:31:47.341Z,1.60
2022-09-24T20:34:14.656Z,1.53
2022-09-24T20:36:41.996Z,2.07
2022-09-24T20:39:09.369Z,1.93
2022-09-24T20:41:37.712Z,2.70
2022-09-24T20:44:05.167Z,2.87
2022-09-24T20:46:33.677Z,1.93
2022-09-24T20:49:01.752Z,1.60
2022-09-24T20:51:29.848Z,1.33
2022-09-24T20:53:57.979Z,1.60
2022-09-24T20:56:26.166Z,2.53
2022-09-24T20:58:54.274Z,1.23
2022-09-24T21:01:22.476Z,1.20
2022-09-24T21:03:50.264Z,1.40
2022-09-24T21:06:18.263Z,0.83
2022-09-24T21:08:46.424Z,1.37
2022-09-24T21:11:19.117Z,1.17
2022-09-24T21:13:51.449Z,0.87
2022-09-24T21:16:23.364Z,1.77
2022-09-24T21:18:52.312Z,0.67
2022-09-24T21:21:21.056Z,0.80
2022-09-24T21:23:49.433Z,0.80
2022-09-24T21:26:20.951Z,0.93
2022-09-24T21:28:49.912Z,0.90
2022-09-24T21:31:18.601Z,1.13
2022-09-24T21:33:47.583Z,1.07
2022-09-24T21:36:18.633Z,0.60
2022-09-24T21:39:07.183Z,0.90
2022-09-24T21:41:37.851Z,0.70
2022-09-24T21:44:06.058Z,0.90
2022-09-24T21:46:33.878Z,0.67
2022-09-24T21:49:01.731Z,1.10
2022-09-24T21:51:30.145Z,0.97
2022-09-24T21:54:01.911Z,0.90
2022-09-24T21:56:30.247Z,0.83
2022-09-24T21:58:57.904Z,0.77
2022-09-24T22:01:27.721Z,0.60
2022-09-24T22:03:59.194Z,0.57
2022-09-24T22:06:28.967Z,0.57
2022-09-24T22:08:58.017Z,0.40
2022-09-24T22:11:28.394Z,0.97
2022-09-24T22:14:02.749Z,0.60
2022-09-24T22:16:31.093Z,0.50
2022-09-24T22:18:58.935Z,0.40
2022-09-24T22:21:26.359Z,1.73
2022-09-24T22:23:54.038Z,0.50
2022-09-24T22:26:21.350Z,0.43
2022-09-24T22:28:48.741Z,1.90
2022-09-24T22:31:18.071Z,1.43
2022-09-24T22:34:04.460Z,0.73
2022-09-24T22:36:33.300Z,0.43
2022-09-24T22:39:01.556Z,1.23
2022-09-24T22:41:29.655Z,0.50
2022-09-24T22:43:57.569Z,0.60
2022-09-24T22:46:27.268Z,2.40
2022-09-24T22:48:57.984Z,0.77
2022-09-24T22:51:27.141Z,0.50
2022-09-24T22:53:57.478Z,0.87
2022-09-24T22:56:25.958Z,0.40
2022-09-24T22:58:54.724Z,0.50
2022-09-24T23:01:26.425Z,1.33
2022-09-24T23:03:54.562Z,1.27
2022-09-24T23:06:22.224Z,0.60
2022-09-24T23:08:50.082Z,1.33
2022-09-24T23:11:19.128Z,0.30
2022-09-24T23:13:47.759Z,0.50
2022-09-24T23:16:17.009Z,4.17
2022-09-24T23:18:47.507Z,0.40
2022-09-24T23:21:16.012Z,0.50
2022-09-24T23:23:46.310Z,0.43
2022-09-24T23:26:16.707Z,0.40
2022-09-24T23:28:44.712Z,0.40
2022-09-24T23:31:13.423Z,0.30
2022-09-24T23:33:41.595Z,0.30
2022-09-24T23:36:10.143Z,0.40
2022-09-24T23:38:37.748Z,0.83
2022-09-24T23:41:05.421Z,0.63
2022-09-24T23:43:33.388Z,0.50
2022-09-24T23:46:01.302Z,0.40
2022-09-24T23:48:28.989Z,0.23
2022-09-24T23:50:58.481Z,0.30
2022-09-24T23:53:26.252Z,0.50
2022-09-24T23:55:54.197Z,0.30
2022-09-24T23:58:22.976Z,0.20
